Time;durP1;ratioP1;P1;durP2;ratioP2;P2;SDS_P1;SDS_P2;PMS_P1;PMS_P2;Temp;Humidity;BMP_temperature;BMP_pressure;BME280_temperature;BME280_humidity;BME280_pressure;Samples;Min_cycle;Max_cycle;Signal;HPM_P1;HPM_P2
2022/07/10 00:00:40;;;;;;;6.60;3.20;;;;;;;13.02;75.91;96774.77;108817;1264;22549;-81
2022/07/10 00:03:13;;;;;;;7.40;3.90;;;;;;;12.98;76.09;96771.92;108840;1264;25336;-81
2022/07/10 00:05:50;;;;;;;5.10;3.70;;;;;;;12.98;76.24;96770.38;108633;1263;82951;-82
2022/07/10 00:08:22;;;;;;;5.90;3.60;;;;;;;12.91;76.55;96766.63;108823;1264;23479;-82
2022/07/10 00:10:56;;;;;;;3.70;3.20;;;;;;;12.86;77.01;96764.38;108791;1264;25565;-81
2022/07/10 00:13:29;;;;;;;6.30;3.00;;;;;;;12.80;77.37;96762.06;108838;1264;22594;-82
2022/07/10 00:16:01;;;;;;;5.10;3.10;;;;;;;12.76;77.73;96758.91;108656;1263;108506;-81
2022/07/10 00:18:46;;;;;;;4.20;3.20;;;;;;;12.72;78.06;96757.50;108765;1264;22574;-81
2022/07/10 00:21:23;;;;;;;6.30;3.40;;;;;;;12.68;78.32;96756.80;108858;1264;25232;-81
2022/07/10 00:23:57;;;;;;;3.10;2.80;;;;;;;12.58;78.53;96757.48;108819;1264;24343;-81
2022/07/10 00:26:33;;;;;;;4.10;3.20;;;;;;;12.45;78.77;96755.52;108659;1264;74822;-81
2022/07/10 00:29:06;;;;;;;8.00;3.30;;;;;;;12.39;79.37;96751.92;108873;1264;24212;-81
2022/07/10 00:31:39;;;;;;;4.20;3.20;;;;;;;12.37;79.69;96753.71;108824;1262;22548;-81
2022/07/10 00:34:17;;;;;;;4.60;3.50;;;;;;;12.39;80.24;96754.80;108851;1264;23279;-81
2022/07/10 00:36:50;;;;;;;6.30;3.60;;;;;;;12.39;80.38;96752.36;108711;1263;68951;-81
2022/07/10 00:39:26;;;;;;;3.90;3.50;;;;;;;12.47;80.65;96756.19;108839;1264;22543;-81
2022/07/10 00:42:06;;;;;;;5.20;3.80;;;;;;;12.57;80.53;96753.34;108866;1264;22528;-81
2022/07/10 00:44:46;;;;;;;4.70;3.50;;;;;;;12.69;80.62;96753.13;108830;1264;22525;-81
2022/07/10 00:47:23;;;;;;;4.00;3.60;;;;;;;12.81;80.57;96752.31;108645;1264;108807;-81
2022/07/10 00:49:54;;;;;;;6.30;3.90;;;;;;;12.92;80.36;96749.48;108863;1264;24460;-81
2022/07/10 00:52:28;;;;;;;5.30;3.80;;;;;;;13.04;80.33;96744.98;108795;1262;22519;-81
2022/07/10 00:55:07;;;;;;;6.00;3.90;;;;;;;13.14;80.20;96740.21;108811;1264;25303;-81
2022/07/10 00:57:53;;;;;;;7.50;5.30;;;;;;;13.16;80.18;96738.68;108828;1264;22579;-81
2022/07/10 01:00:28;;;;;;;4.90;3.70;;;;;;;13.21;80.02;96735.16;108786;1264;25507;-81
2022/07/10 01:03:05;;;;;;;4.80;3.90;;;;;;;13.24;80.03;96730.45;108817;1264;22680;-81
2022/07/10 01:05:40;;;;;;;5.80;4.30;;;;;;;13.26;80.07;96725.23;108668;1263;87028;-81
2022/07/10 01:08:13;;;;;;;6.10;4.20;;;;;;;13.28;80.01;96726.42;108765;1263;22685;-82
2022/07/10 01:10:58;;;;;;;6.40;4.30;;;;;;;13.28;80.19;96723.98;108800;1264;25339;-81
2022/07/10 01:13:35;;;;;;;6.30;4.40;;;;;;;13.39;80.28;96723.00;108794;1264;22518;-81
2022/07/10 01:16:11;;;;;;;7.10;4.60;;;;;;;13.44;80.18;96721.36;108493;1264;196978;-81
2022/07/10 01:18:55;;;;;;;5.60;4.00;;;;;;;13.49;80.05;96714.88;108774;1264;22671;-81
2022/07/10 01:21:38;;;;;;;5.30;3.70;;;;;;;13.56;79.77;96715.98;108807;1264;25251;-81
2022/07/10 01:24:11;;;;;;;6.10;3.90;;;;;;;13.58;79.60;96714.35;108793;1264;22816;-81
2022/07/10 01:26:48;;;;;;;5.60;4.40;;;;;;;13.61;79.60;96709.42;106906;1264;2300234;-81
2022/07/10 01:29:30;;;;;;;5.20;4.50;;;;;;;13.64;79.48;96705.38;108806;1264;22516;-81
2022/07/10 01:32:05;;;;;;;6.40;4.50;;;;;;;13.62;79.40;96702.44;108850;1264;22546;-81
2022/07/10 01:34:36;;;;;;;5.50;4.10;;;;;;;13.60;79.48;96701.29;108712;1263;22514;-81
2022/07/10 01:37:17;;;;;;;6.60;4.30;;;;;;;13.56;79.58;96702.70;108293;1261;257331;-81
2022/07/10 01:39:58;;;;;;;5.30;4.40;;;;;;;13.58;79.62;96699.36;108798;1264;22532;-81
2022/07/10 01:42:32;;;;;;;8.20;4.30;;;;;;;13.61;79.71;96699.36;108794;1264;22517;-81
2022/07/10 01:45:12;;;;;;;5.40;3.90;;;;;;;13.62;79.74;96692.14;108739;1264;22635;-81
2022/07/10 01:47:45;;;;;;;5.50;4.10;;;;;;;13.64;79.65;96694.76;108829;1263;22508;-81
2022/07/10 01:50:31;;;;;;;6.20;4.30;;;;;;;13.65;79.79;96693.86;108786;1264;22629;-81
2022/07/10 01:53:05;;;;;;;6.50;4.00;;;;;;;13.68;79.79;96689.48;108825;1264;22590;-81
2022/07/10 01:55:37;;;;;;;6.20;4.20;;;;;;;13.69;79.81;96689.09;108543;1264;100660;-81
2022/07/10 01:58:11;;;;;;;8.40;5.00;;;;;;;13.70;79.82;96687.16;108823;1264;22657;-81
2022/07/10 02:00:52;;;;;;;6.30;4.90;;;;;;;13.74;79.83;96680.80;108774;1264;22553;-81
2022/07/10 02:06:34;;;;;;;5.40;4.40;;;;;;;13.80;79.59;96675.36;103840;1267;5601855;-81
2022/07/10 02:09:11;;;;;;;6.10;4.90;;;;;;;13.79;79.51;96674.08;108278;1268;22514;-81
2022/07/10 02:11:49;;;;;;;8.50;5.30;;;;;;;13.80;79.42;96669.17;108319;1268;22558;-81
2022/07/10 02:17:16;;;;;;;5.00;4.20;;;;;;;13.79;79.14;96658.10;108570;1264;94421;-81
2022/07/10 02:19:49;;;;;;;8.20;4.90;;;;;;;13.75;79.13;96658.96;108818;1263;22531;-81
2022/07/10 02:22:26;;;;;;;6.40;4.60;;;;;;;13.70;79.03;96658.39;108729;1264;22565;-81
2022/07/10 02:25:03;;;;;;;9.70;4.40;;;;;;;13.64;79.17;96659.66;108839;1264;23138;-81
2022/07/10 02:27:49;;;;;;;6.70;4.40;;;;;;;13.57;79.24;96660.12;108720;1264;22532;-81
2022/07/10 02:30:24;;;;;;;7.70;5.50;;;;;;;13.54;79.49;96661.09;108849;1264;22528;-81
2022/07/10 02:32:57;;;;;;;6.20;4.80;;;;;;;13.53;79.63;96651.63;108795;1263;22530;-81
2022/07/10 02:35:29;;;;;;;6.50;5.00;;;;;;;13.53;79.55;96649.14;107160;1264;1935787;-81
2022/07/10 02:38:03;;;;;;;7.20;4.90;;;;;;;13.51;79.79;96650.60;108710;1264;22560;-81
2022/07/10 02:40:40;;;;;;;6.60;4.90;;;;;;;13.52;80.00;96648.73;108733;1264;22537;-81
2022/07/10 02:43:16;;;;;;;6.30;4.90;;;;;;;13.52;80.02;96648.98;108724;1264;22639;-81
2022/07/10 02:45:50;;;;;;;6.30;4.30;;;;;;;13.55;80.09;96645.36;108514;1264;72956;-81
2022/07/10 02:48:21;;;;;;;6.60;4.70;;;;;;;13.57;79.96;96638.77;108822;1264;22677;-81
2022/07/10 02:51:01;;;;;;;8.10;5.10;;;;;;;13.57;79.97;96629.59;108826;1264;22537;-81
2022/07/10 02:53:35;;;;;;;6.80;5.00;;;;;;;13.58;80.04;96623.81;108802;1264;22518;-81
2022/07/10 02:56:10;;;;;;;6.30;5.30;;;;;;;13.57;80.06;96619.79;108625;1264;100034;-81
2022/07/10 02:58:43;;;;;;;6.50;5.00;;;;;;;13.54;80.02;96619.23;108770;1264;22813;-81
2022/07/10 03:01:14;;;;;;;7.30;5.00;;;;;;;13.52;80.05;96619.80;108778;1264;25084;-81
2022/07/10 03:03:58;;;;;;;6.00;4.50;;;;;;;13.53;80.04;96621.06;108738;1264;22574;-81
2022/07/10 03:06:35;;;;;;;5.50;4.50;;;;;;;13.53;80.14;96621.06;108513;1264;107946;-81
2022/07/10 03:09:13;;;;;;;7.20;4.60;;;;;;;13.54;80.20;96622.80;108758;1263;22722;-81
2022/07/10 03:11:46;;;;;;;5.70;4.70;;;;;;;13.56;80.37;96623.60;108738;1264;22629;-81
2022/07/10 03:14:23;;;;;;;8.20;5.10;;;;;;;13.58;80.24;96618.86;108802;1264;22530;-81
2022/07/10 03:16:55;;;;;;;6.30;5.00;;;;;;;13.61;80.14;96617.16;108617;1264;76297;-81
2022/07/10 03:19:29;;;;;;;8.40;5.60;;;;;;;13.64;80.15;96617.41;108805;1264;22638;-81
2022/07/10 03:22:15;;;;;;;4.50;3.80;;;;;;;13.69;80.06;96618.58;108840;1264;26441;-81
2022/07/10 03:24:48;;;;;;;6.70;5.40;;;;;;;13.76;79.97;96625.05;108859;1264;25373;-81
2022/07/10 03:27:22;;;;;;;10.10;5.40;;;;;;;13.83;80.18;96623.48;108444;1264;123304;-81
2022/07/10 03:29:58;;;;;;;5.80;4.30;;;;;;;13.95;80.15;96619.55;108694;1264;25239;-81
2022/07/10 03:32:32;;;;;;;7.30;5.70;;;;;;;14.07;79.92;96624.21;108664;1263;22745;-81
2022/07/10 03:35:09;;;;;;;9.00;5.90;;;;;;;14.13;79.69;96619.59;108652;1264;22585;-80
2022/07/10 03:37:46;;;;;;;6.70;4.50;;;;;;;14.17;79.62;96620.34;108201;1267;22535;-81
2022/07/10 03:40:29;;;;;;;6.20;4.90;;;;;;;14.20;79.50;96619.98;108339;1267;22514;-81
2022/07/10 03:43:06;;;;;;;6.20;4.90;;;;;;;14.23;79.43;96613.60;108232;1268;25536;-81
2022/07/10 03:45:40;;;;;;;6.10;4.60;;;;;;;14.28;79.40;96613.92;108226;1265;105447;-81
2022/07/10 03:48:22;;;;;;;6.80;5.00;;;;;;;14.31;79.31;96612.84;108803;1264;25971;-81
2022/07/10 03:50:57;;;;;;;6.00;5.00;;;;;;;14.35;79.26;96615.20;108777;1264;23209;-81
2022/07/10 03:53:30;;;;;;;6.00;4.80;;;;;;;14.37;79.09;96611.71;108813;1264;24411;-81
2022/07/10 03:56:03;;;;;;;8.80;4.70;;;;;;;14.36;79.11;96608.22;108558;1264;97074;-81
2022/07/10 03:58:37;;;;;;;7.80;4.60;;;;;;;14.36;78.96;96609.86;108701;1264;22573;-81
2022/07/10 04:01:11;;;;;;;7.20;5.20;;;;;;;14.34;78.97;96609.73;108732;1264;22516;-81
2022/07/10 04:03:50;;;;;;;6.10;4.80;;;;;;;14.29;78.90;96605.58;108778;1265;22542;-81
2022/07/10 04:06:26;;;;;;;6.30;5.20;;;;;;;14.23;79.01;96597.20;108558;1264;115388;-81
2022/07/10 04:09:02;;;;;;;8.50;5.10;;;;;;;14.18;79.20;96597.98;108807;1264;25407;-81
2022/07/10 04:11:43;;;;;;;5.10;4.10;;;;;;;14.13;79.21;96597.73;108618;1265;22515;-81
2022/07/10 04:14:15;;;;;;;7.30;4.70;;;;;;;14.09;79.37;96590.31;108698;1264;22532;-81
2022/07/10 04:16:54;;;;;;;7.50;5.40;;;;;;;14.10;79.58;96592.52;108563;1264;112269;-81
2022/07/10 04:19:26;;;;;;;5.00;4.00;;;;;;;14.13;79.62;96591.65;108684;1264;22558;-81
2022/07/10 04:22:03;;;;;;;5.60;4.30;;;;;;;14.19;79.74;96593.86;108762;1264;26414;-80
2022/07/10 04:24:50;;;;;;;5.50;4.10;;;;;;;14.23;79.70;96595.69;108766;1264;22525;-81
2022/07/10 04:27:22;;;;;;;7.80;5.00;;;;;;;14.33;79.83;96591.77;104204;1265;4612063;-81
2022/07/10 04:29:59;;;;;;;6.00;4.40;;;;;;;14.41;79.54;96588.20;108780;1264;24551;-81
2022/07/10 04:32:37;;;;;;;4.90;3.80;;;;;;;14.48;79.65;96584.32;108814;1264;25372;-81
2022/07/10 04:35:15;;;;;;;7.40;4.40;;;;;;;14.57;79.35;96585.27;108618;1265;88670;-80
2022/07/10 04:37:50;;;;;;;5.70;4.40;;;;;;;14.54;79.06;96584.27;108755;1264;23238;-81
2022/07/10 04:40:24;;;;;;;8.30;5.00;;;;;;;14.48;79.15;96586.83;108771;1264;22544;-81
2022/07/10 04:42:56;;;;;;;5.00;3.80;;;;;;;14.45;79.21;96589.06;108725;1265;24338;-81
2022/07/10 04:45:39;;;;;;;6.90;4.20;;;;;;;14.43;79.09;96587.73;108437;1264;136630;-81
2022/07/10 04:48:10;;;;;;;5.40;4.30;;;;;;;14.39;79.24;96588.67;108757;1265;22813;-81
2022/07/10 04:50:45;;;;;;;5.80;3.80;;;;;;;14.36;79.37;96591.89;108774;1264;22540;-81
2022/07/10 04:53:17;;;;;;;5.00;3.60;;;;;;;14.31;79.37;96589.22;108662;1264;22577;-81
2022/07/10 04:55:49;;;;;;;4.80;3.60;;;;;;;14.28;79.63;96587.06;108578;1265;138727;-81
2022/07/10 04:58:21;;;;;;;5.50;3.60;;;;;;;14.26;79.79;96581.98;108799;1262;23352;-81
2022/07/10 05:00:55;;;;;;;5.60;3.50;;;;;;;14.24;79.65;96581.27;108748;1265;23909;-81
2022/07/10 05:03:35;;;;;;;5.70;3.60;;;;;;;14.21;79.52;96582.02;108784;1264;22574;-81
2022/07/10 05:06:07;;;;;;;5.80;3.10;;;;;;;14.18;79.65;96578.95;104587;1265;5198500;-81
2022/07/10 05:08:41;;;;;;;4.90;3.40;;;;;;;14.14;79.61;96581.12;108774;1264;26442;-81
2022/07/10 05:11:12;;;;;;;5.80;3.60;;;;;;;14.13;79.84;96578.61;108769;1265;22542;-80
2022/07/10 05:13:49;;;;;;;5.20;3.70;;;;;;;14.10;79.90;96580.31;108711;1264;22521;-81
2022/07/10 05:16:23;;;;;;;4.90;3.80;;;;;;;14.11;80.09;96581.95;108501;1265;96582;-81
2022/07/10 05:18:54;;;;;;;4.00;3.30;;;;;;;14.13;80.11;96584.34;108686;1265;22638;-81
2022/07/10 05:21:37;;;;;;;4.50;3.20;;;;;;;14.13;80.26;96585.00;108700;1265;22532;-81
2022/07/10 05:24:13;;;;;;;4.40;3.30;;;;;;;14.09;80.42;96583.22;108710;1265;22538;-81
2022/07/10 05:26:48;;;;;;;3.70;3.30;;;;;;;14.09;80.58;96581.46;108538;1265;131885;-80
2022/07/10 05:29:21;;;;;;;3.50;2.90;;;;;;;14.14;80.79;96580.59;108761;1265;25261;-81
2022/07/10 05:31:54;;;;;;;3.80;3.40;;;;;;;14.20;80.78;96577.15;108736;1265;22568;-80
2022/07/10 05:34:34;;;;;;;3.40;2.90;;;;;;;14.29;80.73;96572.35;108773;1265;25242;-81
2022/07/10 05:37:08;;;;;;;4.20;3.10;;;;;;;14.37;80.76;96569.72;107186;1265;1993144;-81
2022/07/10 05:39:42;;;;;;;5.10;3.70;;;;;;;14.44;80.49;96568.57;108769;1265;22502;-81
2022/07/10 05:42:18;;;;;;;3.80;3.00;;;;;;;14.42;80.20;96572.48;108758;1265;22602;-81
2022/07/10 05:44:51;;;;;;;4.50;2.90;;;;;;;14.42;80.31;96572.27;108777;1265;26940;-81
2022/07/10 05:47:34;;;;;;;5.40;3.60;;;;;;;14.43;80.31;96570.28;106978;1264;1980987;-81
2022/07/10 05:50:10;;;;;;;6.70;3.10;;;;;;;14.47;80.45;96569.02;108599;1265;25407;-81
2022/07/10 05:52:46;;;;;;;5.60;4.00;;;;;;;14.44;80.32;96567.43;108728;1265;22714;-80
2022/07/10 05:55:17;;;;;;;4.20;3.50;;;;;;;14.49;80.49;96567.10;108522;1265;105129;-81
2022/07/10 05:57:51;;;;;;;4.70;3.30;;;;;;;14.52;80.30;96567.63;108705;1265;23107;-81
2022/07/10 06:00:25;;;;;;;4.00;3.50;;;;;;;14.47;80.08;96570.94;108744;1264;22699;-81
2022/07/10 06:02:57;;;;;;;4.40;3.60;;;;;;;14.41;80.31;96570.95;108794;1265;22511;-81
2022/07/10 06:05:32;;;;;;;4.20;3.70;;;;;;;14.42;80.47;96567.63;108506;1265;102747;-81
2022/07/10 06:08:15;;;;;;;3.90;3.50;;;;;;;14.46;80.58;96568.73;108744;1265;26699;-81
2022/07/10 06:10:47;;;;;;;6.90;3.80;;;;;;;14.55;80.69;96565.26;108765;1265;22525;-81
2022/07/10 06:13:20;;;;;;;4.80;3.70;;;;;;;14.86;80.60;96566.41;108774;1265;22587;-81
2022/07/10 06:15:55;;;;;;;5.40;4.20;;;;;;;15.26;79.24;96564.49;108583;1265;95846;-81
2022/07/10 06:18:27;;;;;;;5.90;4.00;;;;;;;15.21;77.70;96565.48;108713;1265;22540;-81
2022/07/10 06:21:07;;;;;;;5.70;3.70;;;;;;;15.05;77.45;96563.17;108677;1264;22528;-81
2022/07/10 06:23:39;;;;;;;4.50;4.00;;;;;;;14.79;77.43;96567.64;108723;1265;24265;-81
2022/07/10 06:26:13;;;;;;;4.40;3.80;;;;;;;14.59;77.94;96567.83;106873;1265;2141900;-81
2022/07/10 06:28:49;;;;;;;4.40;3.20;;;;;;;14.47;78.33;96568.38;108671;1265;22583;-81
2022/07/10 06:31:23;;;;;;;5.00;3.90;;;;;;;14.40;78.62;96564.16;108690;1265;24347;-81
2022/07/10 06:33:55;;;;;;;5.20;3.80;;;;;;;14.46;78.97;96566.48;108641;1264;22608;-81
2022/07/10 06:36:26;;;;;;;7.10;5.40;;;;;;;14.41;79.02;96561.20;108475;1265;95518;-81
2022/07/10 06:38:59;;;;;;;7.50;6.80;;;;;;;14.23;79.60;96576.27;108668;1265;22561;-82
2022/07/10 06:41:34;;;;;;;7.60;6.20;;;;;;;14.05;80.06;96575.23;108672;1265;22582;-81
2022/07/10 06:44:08;;;;;;;7.40;5.80;;;;;;;14.00;80.69;96570.37;108664;1265;22521;-82
2022/07/10 06:46:40;;;;;;;11.70;8.30;;;;;;;13.97;80.97;96570.52;108566;1265;127131;-82
2022/07/10 06:49:14;;;;;;;7.60;6.30;;;;;;;13.99;81.49;96573.63;108732;1264;25257;-82
2022/07/10 06:51:45;;;;;;;9.10;7.80;;;;;;;13.95;82.08;96570.14;108795;1265;25441;-82
2022/07/10 06:54:21;;;;;;;8.10;7.30;;;;;;;13.85;82.21;96578.20;108770;1264;22604;-82
2022/07/10 06:56:53;;;;;;;7.90;7.10;;;;;;;13.90;82.78;96576.64;108511;1265;115068;-82
2022/07/10 06:59:24;;;;;;;7.90;6.90;;;;;;;13.91;83.14;96575.11;108778;1262;22610;-82
2022/07/10 07:01:58;;;;;;;9.00;8.00;;;;;;;13.90;83.83;96570.62;108790;1265;23215;-82
2022/07/10 07:04:30;;;;;;;10.20;8.00;;;;;;;13.91;84.00;96575.77;108809;1265;22579;-83
2022/07/10 07:07:07;;;;;;;8.50;7.30;;;;;;;13.90;84.20;96582.29;108560;1265;79850;-83
2022/07/10 07:09:39;;;;;;;7.20;6.50;;;;;;;14.11;84.69;96584.29;108758;1264;22548;-82
2022/07/10 07:12:14;;;;;;;7.90;5.90;;;;;;;15.19;85.57;96590.03;108777;1265;22547;-82
2022/07/10 07:14:52;;;;;;;6.60;4.80;;;;;;;15.64;82.11;96596.27;108659;1265;22611;-81
2022/07/10 07:17:33;;;;;;;6.10;5.40;;;;;;;15.62;81.46;96595.63;108582;1265;91504;-82
2022/07/10 07:23:13;;;;;;;5.30;4.10;;;;;;;17.17;77.09;96584.45;108879;1265;22551;-81
2022/07/10 07:25:49;;;;;;;5.30;4.20;;;;;;;17.04;75.23;96580.55;106840;1265;2568453;-81
2022/07/10 07:28:24;;;;;;;3.90;3.60;;;;;;;16.89;75.13;96585.89;108759;1264;22544;-82
2022/07/10 07:31:02;;;;;;;5.60;3.70;;;;;;;16.80;74.23;96580.91;108791;1265;22987;-81
2022/07/10 07:33:36;;;;;;;5.90;4.00;;;;;;;16.77;74.69;96595.70;108699;1265;22582;-82
2022/07/10 07:36:10;;;;;;;3.20;2.70;;;;;;;19.21;75.33;96589.80;108511;1264;94003;-82
2022/07/10 07:38:42;;;;;;;4.10;3.50;;;;;;;19.81;66.34;96591.63;108665;1264;22868;-81
2022/07/10 07:41:23;;;;;;;5.50;3.70;;;;;;;18.94;66.29;96586.77;108684;1264;24247;-82
2022/07/10 07:43:54;;;;;;;2.50;2.30;;;;;;;21.05;67.50;96586.83;108654;1265;23451;-83
2022/07/10 07:46:44;;;;;;;3.60;2.40;;;;;;;22.83;58.46;96576.04;108522;1264;71534;-82
2022/07/10 07:49:15;;;;;;;2.70;2.10;;;;;;;23.17;58.69;96580.71;108723;1265;22670;-82
2022/07/10 07:51:52;;;;;;;3.10;2.40;;;;;;;23.57;54.86;96579.17;108730;1264;24262;-82
2022/07/10 07:54:29;;;;;;;2.50;2.30;;;;;;;23.52;54.85;96580.89;108728;1264;22634;-81
2022/07/10 07:57:03;;;;;;;2.80;2.20;;;;;;;22.02;53.36;96578.77;107277;1264;1765169;-81
2022/07/10 07:59:34;;;;;;;2.90;2.40;;;;;;;20.70;55.10;96588.92;108617;1265;22572;-81
2022/07/10 08:02:10;;;;;;;3.10;2.80;;;;;;;19.61;56.00;96591.48;108769;1264;22532;-81
2022/07/10 08:04:41;;;;;;;3.10;2.40;;;;;;;19.02;57.90;96586.86;108615;1264;22481;-81
2022/07/10 08:07:14;;;;;;;3.70;3.00;;;;;;;18.80;58.21;96590.10;108530;1264;108269;-81
2022/07/10 08:09:49;;;;;;;3.10;2.60;;;;;;;18.77;58.82;96594.05;108757;1264;22550;-81
2022/07/10 08:12:23;;;;;;;3.80;2.70;;;;;;;18.65;59.75;96591.73;108731;1264;22538;-81
2022/07/10 08:14:55;;;;;;;4.80;2.70;;;;;;;18.29;59.27;96591.09;108738;1264;22610;-81
2022/07/10 08:17:27;;;;;;;3.00;2.80;;;;;;;17.56;59.75;96592.16;106322;1263;3219048;-81
2022/07/10 08:20:02;;;;;;;3.70;2.90;;;;;;;17.00;61.12;96594.10;108769;1264;22541;-81
2022/07/10 08:22:40;;;;;;;4.60;3.00;;;;;;;16.71;62.49;96596.46;108807;1264;25300;-80
2022/07/10 08:25:16;;;;;;;4.00;3.10;;;;;;;16.50;63.29;96603.92;108663;1264;87886;-81
2022/07/10 08:27:50;;;;;;;5.10;2.90;;;;;;;16.53;63.75;96601.40;108748;1263;22605;-81
2022/07/10 08:30:25;;;;;;;3.30;2.90;;;;;;;16.47;64.13;96603.27;108826;1264;24452;-81
2022/07/10 08:32:56;;;;;;;5.00;3.10;;;;;;;16.65;64.71;96606.56;108803;1264;25236;-81
2022/07/10 08:35:30;;;;;;;4.00;2.60;;;;;;;16.83;63.50;96602.61;108680;1264;57584;-81
2022/07/10 08:38:05;;;;;;;3.10;2.70;;;;;;;16.72;62.82;96602.02;108841;1264;24226;-81
2022/07/10 08:40:38;;;;;;;3.00;2.60;;;;;;;16.90;61.60;96599.88;108834;1264;25275;-81
2022/07/10 08:43:12;;;;;;;3.00;2.60;;;;;;;16.79;61.82;96601.03;108807;1264;22541;-81
2022/07/10 08:45:45;;;;;;;3.60;2.90;;;;;;;16.72;61.82;96611.92;108609;1264;95979;-81
2022/07/10 08:48:27;;;;;;;3.30;2.30;;;;;;;16.72;61.62;96608.48;108829;1264;22561;-81
2022/07/10 08:51:03;;;;;;;3.70;2.70;;;;;;;16.77;61.36;96610.85;108835;1264;22544;-81
2022/07/10 08:53:37;;;;;;;4.50;2.70;;;;;;;16.77;61.47;96609.82;108794;1264;24003;-81
2022/07/10 08:56:14;;;;;;;3.60;2.70;;;;;;;16.83;61.60;96606.84;108565;1264;80692;-81
2022/07/10 08:58:48;;;;;;;4.60;2.90;;;;;;;16.79;61.06;96607.98;108759;1264;22546;-81
2022/07/10 09:01:23;;;;;;;4.50;2.90;;;;;;;16.55;61.53;96608.23;108711;1264;22509;-81
2022/07/10 09:03:57;;;;;;;5.20;2.90;;;;;;;16.43;62.09;96606.77;108780;1264;25288;-81
2022/07/10 09:06:32;;;;;;;2.80;2.60;;;;;;;16.33;62.20;96606.91;108361;1264;192428;-80
2022/07/10 09:09:10;;;;;;;3.40;2.50;;;;;;;16.35;62.13;96603.18;108658;1264;22653;-81
2022/07/10 09:11:46;;;;;;;2.90;2.60;;;;;;;16.45;62.58;96601.41;108666;1263;22722;-81
2022/07/10 09:14:22;;;;;;;5.20;2.40;;;;;;;16.51;61.88;96592.69;108681;1264;23405;-81
2022/07/10 09:16:55;;;;;;;4.10;2.10;;;;;;;16.61;61.75;96601.90;108445;1264;115141;-81
2022/07/10 09:19:30;;;;;;;3.50;2.10;;;;;;;16.76;61.06;96598.80;108734;1264;22520;-81
2022/07/10 09:22:08;;;;;;;4.80;2.30;;;;;;;16.49;60.96;96600.36;108751;1264;22566;-81
2022/07/10 09:24:43;;;;;;;3.20;2.30;;;;;;;15.96;62.82;96615.63;108749;1264;22545;-81
2022/07/10 09:27:16;;;;;;;4.70;2.50;;;;;;;15.54;64.68;96620.09;108512;1264;75608;-81
2022/07/10 09:29:58;;;;;;;3.80;2.60;;;;;;;15.31;66.64;96630.11;108696;1264;22547;-81
2022/07/10 09:32:31;;;;;;;3.90;2.10;;;;;;;15.08;68.47;96639.30;108718;1264;23478;-81
2022/07/10 09:37:54;;;;;;;2.00;1.30;;;;;;;14.35;68.61;96638.64;108671;1263;22799;-82
2022/07/10 09:40:31;;;;;;;4.10;1.90;;;;;;;14.12;68.90;96638.70;108712;1264;22566;-82
2022/07/10 09:43:03;;;;;;;1.70;1.30;;;;;;;14.08;70.01;96641.52;108543;1264;22633;-82
2022/07/10 09:45:36;;;;;;;2.00;1.50;;;;;;;14.13;69.64;96638.05;108497;1264;72914;-82
2022/07/10 09:48:12;;;;;;;1.70;1.10;;;;;;;14.36;70.60;96640.38;108709;1264;22514;-82
2022/07/10 09:50:50;;;;;;;2.20;1.50;;;;;;;14.54;70.51;96633.53;108697;1263;22575;-82
2022/07/10 09:53:23;;;;;;;3.70;2.00;;;;;;;14.75;70.42;96629.98;108684;1263;22600;-82
2022/07/10 09:55:59;;;;;;;2.60;2.00;;;;;;;15.14;71.21;96631.89;108576;1264;97553;-82
2022/07/10 09:58:35;;;;;;;2.00;1.60;;;;;;;15.58;70.77;96632.19;108813;1263;24295;-82
2022/07/10 10:01:10;;;;;;;2.90;2.10;;;;;;;15.87;70.67;96635.09;108803;1264;22519;-82
2022/07/10 10:03:49;;;;;;;3.10;1.50;;;;;;;16.64;71.49;96627.02;108753;1264;22530;-82
2022/07/10 10:06:29;;;;;;;4.10;2.00;;;;;;;17.60;69.43;96617.34;106749;1264;2584053;-82
2022/07/10 10:09:13;;;;;;;2.70;1.80;;;;;;;18.01;67.92;96609.54;108793;1263;23873;-82
2022/07/10 10:11:50;;;;;;;2.50;1.60;;;;;;;18.31;66.86;96599.60;108806;1263;22525;-81
2022/07/10 10:14:29;;;;;;;2.00;1.80;;;;;;;18.49;66.57;96590.83;108755;1264;22614;-82
2022/07/10 10:17:13;;;;;;;1.90;1.60;;;;;;;18.26;63.95;96595.27;108579;1264;68612;-82
2022/07/10 10:22:49;;;;;;;2.20;1.80;;;;;;;17.61;64.85;96602.90;108778;1264;25479;-81
2022/07/10 10:25:29;;;;;;;3.40;1.60;;;;;;;17.56;64.51;96601.86;108618;1263;125147;-81
2022/07/10 10:28:02;;;;;;;4.30;2.30;;;;;;;17.59;65.27;96600.82;108828;1264;25353;-82
2022/07/10 10:30:43;;;;;;;3.70;1.70;;;;;;;17.57;64.96;96598.98;108870;1264;22547;-82
2022/07/10 10:33:52;;;;;;;4.40;2.00;;;;;;;17.52;64.59;96599.96;108769;1261;23194;-81
2022/07/10 10:36:51;;;;;;;3.30;1.40;;;;;;;17.42;64.38;96594.94;108553;1263;118710;-82
2022/07/10 10:39:28;;;;;;;3.00;1.70;;;;;;;17.15;65.04;96598.76;108668;1264;22636;-82
2022/07/10 10:42:10;;;;;;;3.20;1.50;;;;;;;17.32;65.28;96595.38;108684;1264;22539;-82
2022/07/10 10:44:46;;;;;;;1.80;1.20;;;;;;;17.82;65.81;96591.24;108679;1264;22536;-82
2022/07/10 10:47:24;;;;;;;2.60;1.30;;;;;;;17.80;62.14;96596.75;106168;1264;3074884;-82
2022/07/10 10:50:03;;;;;;;3.40;1.40;;;;;;;17.58;61.71;96595.21;108742;1264;24435;-82
2022/07/10 10:53:03;;;;;;;2.90;1.40;;;;;;;17.36;61.96;96597.45;108754;1264;22829;-82
2022/07/10 10:55:40;;;;;;;4.10;1.40;;;;;;;17.41;61.92;96590.15;108568;1264;110727;-81
2022/07/10 10:58:26;;;;;;;3.20;1.50;;;;;;;17.22;61.18;96590.22;108801;1264;24296;-81
2022/07/10 11:01:07;;;;;;;3.60;1.20;;;;;;;17.07;61.98;96585.80;108433;1264;438449;-81
2022/07/10 11:04:09;;;;;;;4.90;1.70;;;;;;;17.35;62.10;96592.98;108788;1264;22754;-81
2022/07/10 11:06:50;;;;;;;3.10;1.20;;;;;;;17.63;61.47;96589.83;104329;1264;5478496;-81
2022/07/10 11:09:50;;;;;;;3.60;1.40;;;;;;;17.96;61.44;96587.89;108726;1263;22539;-81
2022/07/10 11:12:21;;;;;;;3.50;1.20;;;;;;;18.33;61.48;96588.41;108611;1264;24427;-80
2022/07/10 11:15:15;;;;;;;3.50;1.50;;;;;;;18.55;60.55;96585.20;108713;1264;22521;-81
2022/07/10 11:17:52;;;;;;;3.30;1.50;;;;;;;18.31;59.35;96583.44;108730;1262;25324;-81
2022/07/10 11:20:33;;;;;;;3.90;1.50;;;;;;;17.99;59.63;96579.63;108681;1264;22521;-80
2022/07/10 11:23:40;;;;;;;2.90;1.50;;;;;;;17.96;59.83;96573.61;108683;1264;25317;-81
2022/07/10 11:26:20;;;;;;;3.50;1.40;;;;;;;18.11;60.63;96571.12;108532;1264;98811;-80
2022/07/10 11:29:01;;;;;;;3.20;1.10;;;;;;;18.36;60.35;96577.98;108835;1264;22550;-80
2022/07/10 11:31:44;;;;;;;5.00;1.30;;;;;;;18.59;59.77;96574.47;108815;1264;22676;-81
2022/07/10 11:34:23;;;;;;;3.50;1.40;;;;;;;18.98;59.87;96581.49;108785;1264;23595;-80
2022/07/10 11:36:59;;;;;;;2.50;1.20;;;;;;;18.90;57.34;96580.63;108525;1264;123407;-81
2022/07/10 11:39:33;;;;;;;3.90;1.40;;;;;;;18.68;57.21;96587.42;108807;1264;23368;-81
2022/07/10 11:42:06;;;;;;;5.30;1.80;;;;;;;18.34;57.71;96591.45;108821;1264;22512;-81
2022/07/10 11:44:41;;;;;;;3.60;1.40;;;;;;;17.97;57.27;96597.44;108806;1264;22573;-80
2022/07/10 11:47:15;;;;;;;3.90;1.60;;;;;;;17.66;57.75;96594.98;108524;1264;106039;-81
2022/07/10 11:49:52;;;;;;;4.70;1.70;;;;;;;17.33;57.20;96599.02;108785;1262;22544;-81
2022/07/10 11:52:29;;;;;;;2.30;1.20;;;;;;;16.83;57.39;96605.89;108777;1263;22569;-81
2022/07/10 11:55:17;;;;;;;3.50;1.10;;;;;;;16.56;57.47;96605.11;108819;1262;22556;-81
2022/07/10 11:57:52;;;;;;;3.00;1.00;;;;;;;16.45;57.76;96598.06;108778;1264;22518;-81
2022/07/10 12:00:40;;;;;;;3.00;1.10;;;;;;;16.54;58.07;96603.73;108802;1264;22508;-81
2022/07/10 12:03:24;;;;;;;6.60;1.40;;;;;;;16.88;58.81;96595.48;108774;1264;22718;-81
2022/07/10 12:06:07;;;;;;;3.70;1.30;;;;;;;17.47;60.11;96587.66;108646;1264;79101;-81
2022/07/10 12:08:53;;;;;;;5.70;1.20;;;;;;;18.04;58.38;96580.77;108792;1264;22522;-81
2022/07/10 12:11:26;;;;;;;5.80;1.10;;;;;;;18.47;57.77;96574.48;108845;1264;22551;-80
2022/07/10 12:14:17;;;;;;;3.00;1.30;;;;;;;18.45;56.97;96579.19;108851;1263;22589;-80
2022/07/10 12:16:54;;;;;;;3.60;1.60;;;;;;;18.27;55.84;96575.98;106921;1264;2363720;-81
2022/07/10 12:19:35;;;;;;;2.10;1.00;;;;;;;18.35;55.90;96573.14;108810;1264;22527;-81
2022/07/10 12:22:11;;;;;;;3.70;1.60;;;;;;;18.64;56.87;96568.11;108815;1262;22661;-81